Decoded Metar for VTSP (PHUKET in THAILAND) (IATA:HKT) | Meteo·Mobile Aviation Weather
aviador You're here:

VTSP Decoded Metar

PHUKET in THAILAND
Report Time2019-07-22 16:30:00
UTC Time2019-07-22 16:40:06
Flight Rules vfr VFR
WindVRB at 01 kt
Visibility9000 m
Phenomena:N/A
Clouds:Few 020 Hf
Expected CloudBase > 800 ft AGL from Temp-Dew spread
CeilingNone
Temp25°C (ISA +10)
Dew Point23°C (89% RH)
QNH1012 hPa
Density Alt1,601 ft
Elevation33 ft
Report Wrong Elevation
Raw Report
METAR VTSP 221630Z VRB01KT 9000 FEW020 25/23 Q1012 NOSIG=

Extra information for VTSP:More info

Metar Taf Metar & Taf Last 4 Metars F.Rules Stats Wind Profile Meteogram Temp Stats Airport Information Weather charts Add Link Nearby VenuesMetar ALERT Operation Metar Decoded Social comments